createdAt,value
2018-06-10T00:00:19.046Z,16.17
2018-06-10T00:02:47.582Z,16.20
2018-06-10T00:05:16.886Z,18.03
2018-06-10T00:07:45.438Z,15.30
2018-06-10T00:10:14.022Z,12.80
2018-06-10T00:12:42.571Z,19.67
2018-06-10T00:15:11.204Z,21.03
2018-06-10T00:17:39.750Z,19.77
2018-06-10T00:20:08.363Z,14.73
2018-06-10T00:22:36.913Z,17.63
2018-06-10T00:25:05.916Z,17.00
2018-06-10T00:27:34.463Z,12.60
2018-06-10T00:30:03.083Z,17.50
2018-06-10T00:32:31.646Z,12.73
2018-06-10T00:35:00.202Z,17.67
2018-06-10T00:37:29.440Z,19.03
2018-06-10T00:39:58.019Z,13.57
2018-06-10T00:42:26.615Z,12.97
2018-06-10T00:44:55.167Z,16.37
2018-06-10T00:47:23.851Z,12.63
2018-06-10T00:49:52.443Z,19.10
2018-06-10T00:52:21.096Z,13.03
2018-06-10T00:54:49.714Z,11.27
2018-06-10T00:57:18.283Z,14.30
2018-06-10T00:59:46.814Z,14.07
2018-06-10T01:02:15.401Z,15.57
2018-06-10T01:04:44.095Z,15.40
2018-06-10T01:07:12.648Z,18.17
2018-06-10T01:09:41.173Z,17.43
2018-06-10T01:12:09.740Z,16.07
2018-06-10T01:14:38.235Z,15.63
2018-06-10T01:17:06.767Z,16.93
2018-06-10T01:19:35.681Z,15.23
2018-06-10T01:22:04.238Z,22.00
2018-06-10T01:24:32.840Z,12.40
2018-06-10T01:27:01.416Z,14.60
2018-06-10T01:29:29.990Z,15.30
2018-06-10T01:31:58.493Z,13.80
2018-06-10T01:34:27.078Z,15.70
2018-06-10T01:36:55.717Z,13.67
2018-06-10T01:39:24.370Z,10.93
2018-06-10T01:41:52.880Z,19.90
2018-06-10T01:44:21.440Z,11.33
2018-06-10T01:46:49.972Z,14.33
2018-06-10T01:49:18.588Z,15.37
2018-06-10T01:51:47.093Z,17.13
2018-06-10T01:54:15.748Z,14.87
2018-06-10T01:56:44.310Z,12.20
2018-06-10T01:59:12.838Z,13.93
2018-06-10T02:01:41.464Z,13.03
2018-06-10T02:04:09.966Z,16.77
2018-06-10T02:06:38.514Z,13.57
2018-06-10T02:09:07.430Z,15.93
2018-06-10T02:11:36.123Z,11.87
2018-06-10T02:14:04.635Z,10.20
2018-06-10T02:16:32.832Z,13.33
2018-06-10T02:19:01.342Z,11.30
2018-06-10T02:21:29.889Z,17.40
2018-06-10T02:23:58.424Z,14.33
2018-06-10T02:26:27.048Z,11.37
2018-06-10T02:28:55.575Z,15.53
2018-06-10T02:31:24.619Z,10.57
2018-06-10T02:33:53.209Z,13.77
2018-06-10T02:36:21.788Z,11.20
2018-06-10T02:38:50.454Z,13.20
2018-06-10T02:41:19.034Z,13.50
2018-06-10T02:43:47.682Z,15.47
2018-06-10T02:46:16.227Z,15.70
2018-06-10T02:48:44.823Z,15.43
2018-06-10T02:51:13.363Z,14.10
2018-06-10T02:53:41.991Z,12.20
2018-06-10T02:56:10.522Z,11.73
2018-06-10T02:58:39.061Z,14.77
2018-06-10T03:01:07.579Z,14.93
2018-06-10T03:03:36.157Z,12.20
2018-06-10T03:06:05.103Z,11.17
2018-06-10T03:08:33.627Z,14.03
2018-06-10T03:11:02.180Z,15.20
2018-06-10T03:13:30.736Z,12.20
2018-06-10T03:15:59.294Z,13.33
2018-06-10T03:18:27.843Z,16.77
2018-06-10T03:20:56.523Z,14.03
2018-06-10T03:23:25.059Z,18.10
2018-06-10T03:25:54.998Z,15.37
2018-06-10T03:28:23.673Z,10.80
2018-06-10T03:30:52.394Z,15.07
2018-06-10T03:33:20.924Z,19.00
2018-06-10T03:35:49.514Z,14.03
2018-06-10T03:38:18.060Z,16.43
2018-06-10T03:40:46.647Z,19.33
2018-06-10T03:43:15.146Z,11.37
2018-06-10T03:45:43.691Z,12.03
2018-06-10T03:48:12.228Z,15.17
2018-06-10T03:50:40.853Z,14.10
2018-06-10T03:53:09.395Z,11.87
2018-06-10T03:55:38.087Z,13.80
2018-06-10T03:58:06.636Z,17.00
2018-06-10T04:00:35.225Z,14.37
2018-06-10T04:03:05.550Z,14.80
2018-06-10T04:05:34.206Z,17.50
2018-06-10T04:08:02.776Z,13.73
2018-06-10T04:10:31.616Z,21.70
2018-06-10T04:13:00.254Z,20.37
2018-06-10T04:15:28.832Z,14.43
2018-06-10T04:17:57.442Z,15.50
2018-06-10T04:20:26.080Z,16.20
2018-06-10T04:22:56.266Z,18.23
2018-06-10T04:25:24.812Z,13.20
2018-06-10T04:27:53.424Z,11.90
2018-06-10T04:30:22.046Z,11.80
2018-06-10T04:32:50.702Z,16.23
2018-06-10T04:35:19.222Z,13.93
2018-06-10T04:37:47.864Z,14.53
2018-06-10T04:40:16.950Z,14.90
2018-06-10T04:42:45.552Z,12.23
2018-06-10T04:45:14.114Z,14.00
2018-06-10T04:47:42.718Z,11.27
2018-06-10T04:50:11.247Z,13.13
2018-06-10T04:52:39.882Z,12.40
2018-06-10T04:55:08.497Z,10.97
2018-06-10T04:57:37.406Z,9.30
2018-06-10T05:00:06.062Z,16.77
2018-06-10T05:02:34.703Z,12.53
2018-06-10T05:05:03.306Z,16.17
2018-06-10T05:07:31.877Z,14.43
2018-06-10T05:10:00.455Z,11.73
2018-06-10T05:12:29.040Z,13.87
2018-06-10T05:14:57.688Z,13.90
2018-06-10T05:17:26.241Z,11.20
2018-06-10T05:19:54.977Z,13.43
2018-06-10T05:22:23.628Z,10.67
2018-06-10T05:24:52.290Z,13.30
2018-06-10T05:27:21.035Z,11.50
2018-06-10T05:29:49.660Z,10.77
2018-06-10T05:32:18.247Z,12.83
2018-06-10T05:34:46.907Z,10.67
2018-06-10T05:37:15.436Z,19.60
2018-06-10T05:39:44.012Z,13.90
2018-06-10T05:42:12.781Z,10.83
2018-06-10T05:44:41.430Z,14.27
2018-06-10T05:47:09.958Z,13.90
2018-06-10T05:49:38.708Z,16.83
2018-06-10T05:52:07.140Z,14.43
2018-06-10T05:54:35.709Z,12.07
2018-06-10T05:57:04.452Z,11.07
2018-06-10T05:59:33.049Z,16.90
2018-06-10T06:02:01.755Z,12.10
2018-06-10T06:04:30.363Z,11.97
2018-06-10T06:06:58.956Z,14.73
2018-06-10T06:09:28.282Z,14.40
2018-06-10T06:11:56.874Z,11.20
2018-06-10T06:14:25.074Z,14.83
2018-06-10T06:16:53.670Z,10.23
2018-06-10T06:19:22.281Z,11.30
2018-06-10T06:21:50.953Z,10.87
2018-06-10T06:24:19.489Z,15.57
2018-06-10T06:26:48.038Z,13.97
2018-06-10T06:29:16.554Z,12.97
2018-06-10T06:31:45.097Z,12.93
2018-06-10T06:34:13.648Z,10.70
2018-06-10T06:36:42.227Z,12.30
2018-06-10T06:39:10.800Z,14.67
2018-06-10T06:41:39.466Z,12.83
2018-06-10T06:44:07.991Z,10.00
2018-06-10T06:46:36.540Z,9.73
2018-06-10T06:49:05.080Z,11.83
2018-06-10T06:51:33.636Z,9.30
2018-06-10T06:54:02.159Z,9.53
2018-06-10T06:56:30.756Z,10.83
2018-06-10T06:58:59.304Z,10.20
2018-06-10T07:01:27.842Z,11.97
2018-06-10T07:03:56.454Z,12.13
2018-06-10T07:06:25.050Z,17.70
2018-06-10T07:08:53.626Z,13.20
2018-06-10T07:11:25.145Z,11.47
2018-06-10T07:13:53.342Z,9.23
2018-06-10T07:16:21.936Z,12.97
2018-06-10T07:18:50.521Z,8.20
2018-06-10T07:21:19.164Z,9.83
2018-06-10T07:23:47.845Z,12.83
2018-06-10T07:26:16.344Z,9.20
2018-06-10T07:28:44.966Z,11.20
2018-06-10T07:31:13.494Z,9.27
2018-06-10T07:33:42.066Z,9.90
2018-06-10T07:36:10.652Z,8.30
2018-06-10T07:38:39.266Z,10.83
2018-06-10T07:41:07.794Z,9.87
2018-06-10T07:43:36.423Z,11.17
2018-06-10T07:46:06.764Z,9.13
2018-06-10T07:48:35.313Z,8.60
2018-06-10T07:51:03.906Z,8.93
2018-06-10T07:53:33.014Z,8.97
2018-06-10T07:56:01.649Z,11.03
2018-06-10T07:58:30.782Z,10.73
2018-06-10T08:00:59.402Z,6.93
2018-06-10T08:03:27.978Z,7.83
2018-06-10T08:05:56.588Z,6.10
2018-06-10T08:08:27.530Z,12.30
2018-06-10T08:10:56.088Z,8.97
2018-06-10T08:13:24.718Z,8.40
2018-06-10T08:15:53.348Z,9.60
2018-06-10T08:18:22.023Z,10.17
2018-06-10T08:20:50.565Z,10.17
2018-06-10T08:23:19.202Z,9.00
2018-06-10T08:25:47.835Z,11.43
2018-06-10T08:28:16.451Z,11.73
2018-06-10T08:30:45.091Z,11.25
2018-06-10T08:33:13.809Z,6.78
2018-06-10T08:35:42.441Z,7.75
2018-06-10T08:38:11.001Z,6.28
2018-06-10T08:40:39.571Z,13.98
2018-06-10T08:43:08.200Z,7.42
2018-06-10T08:45:36.712Z,6.25
2018-06-10T08:48:05.376Z,7.62
2018-06-10T08:50:33.993Z,10.32
2018-06-10T08:53:02.557Z,6.10
2018-06-10T08:55:31.146Z,7.92
2018-06-10T08:57:59.708Z,9.35
2018-06-10T09:00:28.312Z,5.28
2018-06-10T09:02:56.959Z,8.30
2018-06-10T09:05:25.570Z,9.33
2018-06-10T09:07:54.129Z,10.15
2018-06-10T09:10:22.836Z,7.42
2018-06-10T09:12:51.386Z,9.43
2018-06-10T09:15:20.121Z,7.75
2018-06-10T09:17:48.938Z,10.18
2018-06-10T09:20:17.606Z,8.68
2018-06-10T09:22:46.255Z,9.48
2018-06-10T09:25:14.832Z,7.03
2018-06-10T09:27:43.423Z,8.58
2018-06-10T09:30:12.065Z,9.58
2018-06-10T09:32:40.617Z,4.37
2018-06-10T09:35:10.943Z,7.10
2018-06-10T09:37:39.566Z,7.08
2018-06-10T09:40:08.170Z,6.30
2018-06-10T09:42:36.757Z,9.40
2018-06-10T09:45:05.547Z,6.00
2018-06-10T09:47:34.164Z,7.72
2018-06-10T09:50:02.723Z,14.43
2018-06-10T09:52:31.291Z,7.33
2018-06-10T09:54:59.886Z,7.20
2018-06-10T09:57:28.484Z,6.40
2018-06-10T09:59:57.087Z,8.65
2018-06-10T10:02:25.894Z,9.98
2018-06-10T10:04:54.731Z,6.85
2018-06-10T10:07:23.332Z,8.38
2018-06-10T10:09:52.019Z,6.78
2018-06-10T10:12:21.171Z,7.35
2018-06-10T10:14:49.719Z,8.58
2018-06-10T10:17:18.591Z,8.28
2018-06-10T10:19:47.207Z,8.28
2018-06-10T10:22:16.136Z,9.28
2018-06-10T10:24:44.694Z,6.35
2018-06-10T10:27:13.486Z,6.25
2018-06-10T10:29:42.011Z,10.20
2018-06-10T10:32:10.647Z,7.60
2018-06-10T10:34:39.220Z,6.53
2018-06-10T10:37:07.746Z,8.20
2018-06-10T10:39:36.396Z,7.25
2018-06-10T10:42:05.026Z,7.17
2018-06-10T10:44:33.797Z,5.97
2018-06-10T10:47:02.533Z,6.75
2018-06-10T10:49:31.070Z,9.20
2018-06-10T10:51:59.647Z,5.92
2018-06-10T10:54:28.378Z,11.33
2018-06-10T10:56:57.000Z,7.35
2018-06-10T10:59:25.660Z,8.33
2018-06-10T11:01:54.254Z,8.80
2018-06-10T11:04:23.174Z,6.40
2018-06-10T11:06:52.209Z,7.62
2018-06-10T11:09:20.930Z,5.90
2018-06-10T11:11:50.540Z,8.45
2018-06-10T11:14:19.358Z,10.50
2018-06-10T11:16:48.062Z,6.25
2018-06-10T11:19:16.798Z,6.90
2018-06-10T11:21:45.492Z,6.37
2018-06-10T11:24:14.228Z,7.20
2018-06-10T11:26:42.841Z,10.72
2018-06-10T11:29:11.458Z,6.60
2018-06-10T11:31:40.176Z,10.38
2018-06-10T11:34:08.781Z,9.60
2018-06-10T11:36:37.384Z,12.53
2018-06-10T11:39:08.037Z,9.38
2018-06-10T11:41:36.777Z,7.20
2018-06-10T11:44:05.346Z,9.28
2018-06-10T11:46:33.927Z,9.60
2018-06-10T11:49:02.406Z,6.20
2018-06-10T11:51:32.141Z,6.60
2018-06-10T11:54:01.236Z,7.65
2018-06-10T11:56:30.505Z,7.30
2018-06-10T11:58:59.453Z,9.63
2018-06-10T12:01:28.709Z,10.55
2018-06-10T12:03:57.518Z,8.40
2018-06-10T12:06:26.441Z,10.18
2018-06-10T12:08:55.243Z,7.22
2018-06-10T12:11:25.212Z,5.55
2018-06-10T12:13:54.285Z,6.10
2018-06-10T12:16:23.381Z,8.50
2018-06-10T12:18:52.559Z,9.10
2018-06-10T12:21:21.523Z,7.20
2018-06-10T12:23:50.391Z,10.65
2018-06-10T12:26:19.476Z,6.35
2018-06-10T12:28:48.368Z,6.33
2018-06-10T12:31:17.463Z,9.53
2018-06-10T12:33:46.423Z,9.20
2018-06-10T12:36:15.427Z,8.83
2018-06-10T12:38:44.643Z,6.33
2018-06-10T12:41:13.893Z,8.43
2018-06-10T12:43:42.943Z,6.08
2018-06-10T12:46:12.211Z,7.95
2018-06-10T12:48:41.222Z,6.55
2018-06-10T12:51:10.158Z,6.60
2018-06-10T12:53:39.122Z,7.87
2018-06-10T12:56:08.332Z,6.33
2018-06-10T12:58:38.012Z,9.88
2018-06-10T13:01:07.617Z,10.85
2018-06-10T13:03:36.710Z,6.58
2018-06-10T13:06:05.734Z,8.03
2018-06-10T13:08:34.740Z,15.32
2018-06-10T13:11:07.974Z,7.03
2018-06-10T13:13:36.934Z,9.55
2018-06-10T13:16:06.291Z,9.10
2018-06-10T13:18:35.504Z,9.08
2018-06-10T13:21:06.355Z,6.25
2018-06-10T13:23:35.256Z,7.15
2018-06-10T13:26:04.197Z,7.85
2018-06-10T13:28:33.117Z,7.67
2018-06-10T13:31:08.095Z,10.32
2018-06-10T13:33:37.263Z,8.50
2018-06-10T13:36:06.184Z,10.88
2018-06-10T13:38:35.052Z,6.72
2018-06-10T13:41:03.902Z,11.75
2018-06-10T13:43:32.730Z,9.00
2018-06-10T13:46:02.677Z,8.88
2018-06-10T13:48:31.492Z,7.58
2018-06-10T13:51:00.296Z,9.10
2018-06-10T13:53:29.068Z,9.90
2018-06-10T13:55:58.100Z,8.68
2018-06-10T13:58:26.454Z,7.10
2018-06-10T14:00:55.243Z,7.37
2018-06-10T14:03:23.912Z,10.32
2018-06-10T14:05:52.938Z,8.15
2018-06-10T14:08:22.200Z,9.38
2018-06-10T14:10:51.356Z,11.65
2018-06-10T14:13:20.575Z,7.83
2018-06-10T14:15:49.402Z,7.70
2018-06-10T14:18:18.408Z,9.28
2018-06-10T14:20:47.376Z,8.15
2018-06-10T14:23:16.416Z,10.55
2018-06-10T14:25:45.740Z,7.78
2018-06-10T14:28:15.066Z,7.28
2018-06-10T14:30:44.247Z,11.88
2018-06-10T14:33:13.162Z,10.85
2018-06-10T14:35:42.239Z,9.30
2018-06-10T14:38:10.984Z,8.85
2018-06-10T14:40:40.372Z,7.65
2018-06-10T14:43:09.251Z,8.68
2018-06-10T14:45:38.138Z,7.12
2018-06-10T14:48:07.330Z,6.97
2018-06-10T14:50:36.288Z,6.62
2018-06-10T14:53:05.231Z,7.85
2018-06-10T14:55:34.182Z,8.30
2018-06-10T14:58:03.168Z,6.05
2018-06-10T15:00:31.778Z,11.40
2018-06-10T15:03:00.662Z,7.90
2018-06-10T15:05:29.617Z,5.55
2018-06-10T15:07:58.962Z,10.53
2018-06-10T15:10:27.913Z,5.30
2018-06-10T15:12:56.749Z,7.67
2018-06-10T15:15:25.648Z,11.40
2018-06-10T15:17:54.537Z,10.72
2018-06-10T15:20:22.993Z,10.15
2018-06-10T15:22:51.867Z,11.80
2018-06-10T15:25:20.531Z,6.90
2018-06-10T15:27:49.441Z,10.70
2018-06-10T15:36:00.004Z,11.10
2018-06-10T15:38:28.586Z,7.17
2018-06-10T15:40:57.090Z,12.37
2018-06-10T15:43:25.649Z,7.10
2018-06-10T15:45:54.195Z,7.78
2018-06-10T15:48:22.800Z,10.50
2018-06-10T15:50:51.346Z,7.55
2018-06-10T15:53:19.932Z,10.58
2018-06-10T15:55:48.412Z,6.42
2018-06-10T15:58:16.961Z,9.30
2018-06-10T16:00:45.478Z,12.13
2018-06-10T16:03:14.022Z,14.50
2018-06-10T16:05:42.551Z,9.75
2018-06-10T16:08:11.170Z,10.07
2018-06-10T16:10:39.670Z,8.03
2018-06-10T16:13:08.238Z,7.43
2018-06-10T16:15:36.774Z,7.63
2018-06-10T16:18:05.294Z,10.47
2018-06-10T16:20:33.766Z,10.00
2018-06-10T16:23:02.336Z,8.80
2018-06-10T16:25:30.799Z,7.50
2018-06-10T16:27:59.318Z,10.30
2018-06-10T16:30:27.819Z,7.93
2018-06-10T16:32:56.352Z,11.43
2018-06-10T16:35:24.825Z,10.33
2018-06-10T16:37:53.344Z,9.07
2018-06-10T16:40:21.880Z,8.13
2018-06-10T16:42:50.386Z,8.60
2018-06-10T16:45:18.880Z,8.27
2018-06-10T16:47:47.374Z,8.23
2018-06-10T16:50:15.876Z,6.80
2018-06-10T16:52:44.392Z,7.90
2018-06-10T16:55:12.915Z,10.97
2018-06-10T16:57:41.400Z,8.47
2018-06-10T17:00:09.946Z,8.23
2018-06-10T17:02:38.434Z,9.80
2018-06-10T17:05:06.975Z,9.87
2018-06-10T17:07:35.495Z,9.70
2018-06-10T17:10:04.298Z,6.17
2018-06-10T17:12:33.270Z,8.37
2018-06-10T17:15:01.785Z,11.73
2018-06-10T17:17:30.284Z,7.97
2018-06-10T17:19:58.822Z,7.97
2018-06-10T17:22:27.342Z,10.53
2018-06-10T17:24:55.972Z,8.83
2018-06-10T17:27:24.508Z,11.20
2018-06-10T17:29:53.083Z,8.90
2018-06-10T17:32:21.603Z,10.43
2018-06-10T17:34:50.084Z,8.80
2018-06-10T17:37:18.691Z,8.00
2018-06-10T17:39:47.199Z,8.00
2018-06-10T17:42:15.765Z,6.33
2018-06-10T17:44:44.269Z,10.40
2018-06-10T17:47:12.773Z,7.03
2018-06-10T17:49:41.255Z,6.37
2018-06-10T17:52:09.791Z,11.57
2018-06-10T17:54:38.267Z,9.50
2018-06-10T17:57:06.801Z,9.23
2018-06-10T17:59:35.618Z,9.43
2018-06-10T18:02:04.384Z,7.57
2018-06-10T18:04:32.871Z,8.63
2018-06-10T18:07:01.396Z,10.00
2018-06-10T18:09:29.904Z,9.63
2018-06-10T18:11:58.396Z,10.20
2018-06-10T18:14:26.926Z,7.43
2018-06-10T18:16:55.403Z,6.87
2018-06-10T18:19:23.940Z,8.30
2018-06-10T18:21:52.595Z,7.23
2018-06-10T18:24:21.118Z,10.13
2018-06-10T18:26:49.620Z,7.17
2018-06-10T18:29:18.134Z,6.33
2018-06-10T18:31:46.655Z,7.43
2018-06-10T18:34:15.191Z,6.13
2018-06-10T18:36:43.685Z,9.33
2018-06-10T18:39:12.603Z,8.17
2018-06-10T18:41:41.113Z,8.63
2018-06-10T18:44:09.639Z,6.37
2018-06-10T18:46:38.161Z,6.67
2018-06-10T18:49:06.802Z,12.33
2018-06-10T18:51:35.299Z,7.20
2018-06-10T18:54:03.868Z,6.80
2018-06-10T18:56:32.347Z,12.17
2018-06-10T18:59:00.851Z,6.53
2018-06-10T19:01:29.980Z,8.60
2018-06-10T19:03:58.490Z,8.33
2018-06-10T19:06:27.034Z,6.87
2018-06-10T19:08:55.551Z,8.33
2018-06-10T19:11:24.087Z,10.10
2018-06-10T19:13:52.627Z,7.27
2018-06-10T19:16:21.283Z,9.00
2018-06-10T19:18:49.870Z,10.43
2018-06-10T19:21:18.448Z,9.93
2018-06-10T19:23:47.073Z,6.97
2018-06-10T19:26:15.656Z,8.43
2018-06-10T19:28:44.148Z,8.37
2018-06-10T19:31:12.664Z,8.07
2018-06-10T19:33:41.171Z,10.13
2018-06-10T19:36:09.381Z,10.73
2018-06-10T19:38:37.861Z,10.70
2018-06-10T19:41:06.433Z,12.10
2018-06-10T19:43:34.955Z,9.83
2018-06-10T19:46:03.584Z,10.60
2018-06-10T19:48:32.116Z,8.10
2018-06-10T19:51:00.636Z,11.07
2018-06-10T19:53:29.185Z,8.40
2018-06-10T19:55:57.695Z,11.60
2018-06-10T19:58:25.915Z,8.07
2018-06-10T20:00:54.433Z,9.07
2018-06-10T20:03:22.972Z,7.67
2018-06-10T20:05:51.499Z,8.90
2018-06-10T20:08:20.045Z,8.80
2018-06-10T20:10:48.576Z,9.77
2018-06-10T20:13:17.204Z,7.07
2018-06-10T20:15:45.723Z,6.70
2018-06-10T20:18:14.301Z,7.97
2018-06-10T20:20:42.810Z,10.17
2018-06-10T20:23:11.406Z,8.73
2018-06-10T20:25:39.907Z,8.87
2018-06-10T20:28:08.563Z,11.93
2018-06-10T20:30:37.143Z,7.90
2018-06-10T20:33:05.711Z,7.93
2018-06-10T20:35:34.271Z,10.00
2018-06-10T20:38:02.755Z,6.90
2018-06-10T20:40:31.247Z,9.47
2018-06-10T20:42:59.780Z,8.67
2018-06-10T20:45:28.254Z,9.27
2018-06-10T20:47:56.823Z,11.87
2018-06-10T20:50:25.302Z,8.23
2018-06-10T20:52:53.851Z,11.60
2018-06-10T20:55:22.387Z,9.70
2018-06-10T20:57:50.918Z,12.40
2018-06-10T21:00:19.473Z,10.30
2018-06-10T21:02:47.923Z,9.77
2018-06-10T21:05:16.519Z,9.93
2018-06-10T21:07:45.024Z,9.53
2018-06-10T21:10:13.819Z,9.23
2018-06-10T21:12:42.302Z,9.10
2018-06-10T21:15:10.868Z,11.77
2018-06-10T21:17:39.370Z,10.23
2018-06-10T21:20:07.901Z,8.97
2018-06-10T21:22:36.398Z,9.90
2018-06-10T21:25:04.922Z,14.30
2018-06-10T21:27:33.079Z,10.83
2018-06-10T21:30:01.983Z,10.70
2018-06-10T21:32:30.474Z,13.00
2018-06-10T21:34:58.989Z,12.03
2018-06-10T21:37:28.186Z,10.17
2018-06-10T21:39:56.697Z,10.33
2018-06-10T21:42:25.840Z,9.83
2018-06-10T21:44:54.400Z,9.00
2018-06-10T21:47:22.884Z,10.17
2018-06-10T21:49:51.430Z,11.90
2018-06-10T21:52:19.938Z,10.37
2018-06-10T21:54:48.457Z,10.00
2018-06-10T21:57:16.964Z,11.70
2018-06-10T21:59:45.465Z,9.07
2018-06-10T22:02:14.002Z,12.30
2018-06-10T22:04:42.516Z,9.80
2018-06-10T22:07:11.040Z,10.67
2018-06-10T22:09:39.546Z,11.37
2018-06-10T22:12:08.055Z,10.77
2018-06-10T22:14:36.584Z,9.13
2018-06-10T22:17:05.980Z,11.97
2018-06-10T22:19:34.465Z,10.33
2018-06-10T22:22:03.048Z,10.03
2018-06-10T22:24:31.559Z,11.33
2018-06-10T22:27:00.244Z,9.50
2018-06-10T22:29:28.742Z,9.37
2018-06-10T22:31:57.296Z,10.53
2018-06-10T22:34:25.807Z,11.07
2018-06-10T22:36:54.387Z,11.33
2018-06-10T22:39:22.885Z,11.33
2018-06-10T22:41:51.366Z,10.20
2018-06-10T22:44:19.884Z,12.10
2018-06-10T22:46:48.388Z,10.03
2018-06-10T22:49:16.912Z,10.30
2018-06-10T22:51:45.972Z,11.50
2018-06-10T22:54:25.692Z,10.73
2018-06-10T22:56:54.215Z,12.43
2018-06-10T22:59:22.738Z,12.37
2018-06-10T23:01:51.277Z,9.40
2018-06-10T23:04:19.810Z,10.17
2018-06-10T23:06:48.378Z,12.37
2018-06-10T23:09:16.967Z,10.40
2018-06-10T23:11:45.440Z,10.30
2018-06-10T23:14:13.925Z,9.20
2018-06-10T23:16:42.436Z,10.07
2018-06-10T23:19:10.906Z,8.97
2018-06-10T23:21:39.441Z,8.03
2018-06-10T23:24:08.346Z,10.77
2018-06-10T23:26:36.884Z,8.97
2018-06-10T23:29:05.385Z,10.60
2018-06-10T23:31:33.916Z,11.10
2018-06-10T23:34:02.382Z,8.03
2018-06-10T23:36:31.037Z,11.17
2018-06-10T23:38:59.526Z,8.47
2018-06-10T23:41:28.042Z,11.07
2018-06-10T23:43:56.555Z,10.47
2018-06-10T23:46:25.094Z,9.83
2018-06-10T23:48:54.270Z,8.87
2018-06-10T23:51:22.775Z,8.53
2018-06-10T23:53:51.396Z,10.03
2018-06-10T23:56:19.980Z,9.00
2018-06-10T23:58:48.509Z,8.40
